Airfield :
LOGIN :

Register | Disclaimer

   EN    FR    IT 

 










Legend :    VFR   Marginal VFR   IFR   Intensive IFR   Very Intensive IFR
Visi :
Ceiling :
>= 8 km
>= 3000ft
5 to 8 km
1000 to 3000 ft
1500m to 5 km
500 to 1000 ft
800 to 1500m
200 to 500 ft
< 800m
< 200 ft
Symbols :   Thunderstorms  Fog  Heavy snow  Heavy precipitations  Wind > 20 kt
SIGMETs :     Misc.  Thunderstorms  Icing  Turbulence  Mountain Waves  Volcanic Ashes







- Airport Elevation : 863 ft
- IATA code : ZAZ


LEZG - Zaragoza Aragon

CURRENT METAR :
  • 230500Z VRB01KT CAVOK 07/03 Q1019

EXPIRED METARs :
  • 230430Z 20003KT CAVOK 08/04 Q1019
  • 230400Z 19003KT CAVOK 08/04 Q1019
  • 230330Z 16003KT CAVOK 09/03 Q1019
  • 230300Z 15004KT CAVOK 09/04 Q1019
  • 230230Z 16004KT CAVOK 10/04 Q1019

TAF TAF LEZG
Valid from the 23 at 00:00 until the 24 at 00:00 UTC


222300Z 2300/2324 VRB03KT 9999 FEW030 TX25/2313Z TN09/2306Z
TEMPO 2312/2324 06006KT
No reported NOTAMs for that airfield.



MET'MAP, your aeronautical weather chart ! - Copyright ORBIFLY December 2007 - Disclaimer

ORBIFLY MET'MAP TEAM :

Programming & Development : Alexandra Zaïnal
Concept & Development : Baudouin d'Aumeries
Co-Development & Prog : Marc-Olivier Méhu
Technical & hardware support : Manuel Goepfert

Contact : metmap@orbifly.com




SOURCES & CREDITS :

   NOAA